En poursuivant votre navigation sur ce site, vous acceptez l'utilisation de cookies pour vous proposer des contenus et services adaptés. Mentions légales.
  

01/07/2020  Mise à jour des tableaux d'analyses décadaires, mensuelles et annuelles : rubrique climatologie
04/06/2020 Mise en ligne de la synthèse climatologique de mai 2020 : 
CLIQUEZ ICI   

NOAA COMPLET DU MOIS

Si l'entête du tableau ne s'affiche pas correctement, => actualisez la page (F5 avec Internet Explorer, Chrome...).
Utilisez l'ascenseur sur la droite des lignes du tableau pour faire défiler verticalement les jours du mois.

TABLEAU DES DONNEES COMPLETES NOAA de FEVRIER 2020

DATE TEMPERATURE
sous abri
TEMPARATURE 
au sol
VENT  et  Indice de Refroidissement Eolien  PRECIPITATIONS (en mm/m2)
et Intensité
PRESSION ATMOSPHERIQUE (en hPa) HUMIDITE de l'AIR RADIATIONS SOLAIRES (en W/m2)
Mini Moy. Maxi Mini Moy. Maxi Moyen Rafale I.R.E.
Minii
Précip. jour Cumul mois Intensité Maxi Mini Moy. Maxi Mini Moy. Maxi Pic maxi du jour Total jour
01/02/20 7.2° 11.2° 13.5° 4.4° 10.2° 13.9° 7.2km/h dir SSE 38.6km/h dir SSE 6.9° 1.4 1.4 1.2mm/h 1013.3 1016.7 1021.9 82% 91.6% 96% 338 8 579
02/02/20 10.6° 11.9° 13.2° 9.4° 11.5° 12.8° 8.2km/h dir SSE 32.2km/h dir SSE 9.1° 13 14.4 8.8mm/h 1019.2 1020.9 1023.3 86% 93.6% 96% 109 4 336
03/02/20 12.5° 14.4° 17.9° 11.1° 13.6° 18.9° 5.8km/h dir SSE 29km/h dir SSE 12.4° 0 14.4 1016.5 1022.3 1025.5 69% 82.2% 95% 411 12 156
04/02/20 4.4° 7.6° 14.8° 2.8° 7.3° 13.9° 9km/h dir O 57.9km/h dir ONO 1.9° 5 19.4 17.8mm/h 1013.2 1022.5 1029.4 68% 84.1% 93% 603 18 823
05/02/20 2.4° 6.1° 9.4° 1.1° 5.8° 11.7° 8.9km/h dir ONO 33.8km/h dir NNE -0.9° 0.6 20 1029.4 1032.4 1035.3 65% 82.7% 94% 626 26 661
06/02/20 -1.3° 2.1° 7.9° -3.3° 1.1° 10.6° 1.6km/h dir SE 14.5km/h dir NNE -2.1° 0 20 1027.4 1029.4 1031.7 64% 84.8% 95% 508 23 530
07/02/20 -2.9° 4.4° 13.4° -4.4° 3.1° 14.4° 4.3km/h dir SE 32.2km/h dir SSE -3.3° 0 20 1023 1025.3 1027.6 52% 79.6% 95% 473 30 790
08/02/20 3.8° 9.1° 14.2° 7.9° 15° 8.4km/h dir SE 37km/h dir SSE 2.9° 0 20 1022.6 1024.1 1025.8 55% 75.7% 90% 471 31 490
09/02/20 7.3° 10.3° 13.3° 6.1° 9.7° 13.9° 18km/h dir SSE 69.2km/h dir SSE 5.1° 0 20 1017.4 1022.9 1025.8 62% 74.4% 85% 457 24 890
10/02/20 11.7° 12.9° 14.3° 11.1° 12.3° 15° 15.8km/h dir S 74km/h dir SSE 7.2° 0 20 1014.7 1017.3 1021.2 57% 70.4% 85% 490 11 967
11/02/20 5.6° 9.4° 13.3° 2.8° 8.5° 12.8° 7.6km/h dir S 49.9km/h dir SSO 4.8° 3 23 5.6mm/h 1016.6 1020 1023.8 60% 73.2% 91% 364 11 437
12/02/20 0.6° 6.3° 11.7° -1.7° 5.2° 14.4° 3.2km/h dir SSE 16.1km/h dir S 0.7° 0.2 23.2 1021.8 1024.2 1026.5 51% 75.1% 91% 715 25 789
13/02/20 -0.4° 6.4° 10.6° -2.2° 5.5° 11.1° 12.7km/h dir SSE 62.8km/h dir SSE -2.5° 3.2 26.4 10.2mm/h 1009.8 1015.9 1022.2 58% 77.5% 92% 397 9 867
14/02/20 1.9° 7.9° 11.6° 7.2° 13.9° 3.4km/h dir O 19.3km/h dir S 1.9° 1.4 27.8 7.4mm/h 1018.6 1024.3 1026.6 69% 84.7% 94% 559 22 489
15/02/20 -0.4° 8.1° 16.8° -2.2° 7.5° 17.8° 7.1km/h dir SE 40.2km/h dir ESE -1.7° 0.2 28 1020.8 1024 1026.4 47% 76.2% 97% 541 34 879
16/02/20 9.8° 12.4° 15.6° 8.9° 11.9° 17.2° 20.3km/h dir SSE 64.4km/h dir SSE 6.5° 0 28 1018.6 1020.5 1023.5 67% 74.2% 81% 631 22 873
17/02/20 6.5° 10.4° 13.2° 4.4° 9.8° 12.8° 10.5km/h dir SSE 53.1km/h dir SE 5.6° 9.4 37.4 5.4mm/h 1018.7 1022.9 1029.5 75% 85.7% 95% 63 3 945
18/02/20 6.2° 11.4° -0.6° 5.4° 15° 2.4km/h dir SSE 16.1km/h dir S 0.5° 0.2 37.6 1029.4 1030.9 1032.8 57% 82.4% 97% 721 28 384
19/02/20 4.2° 6.9° 10° 2.2° 6.4° 11.1° 5.3km/h dir SSE 22.5km/h dir SSE 3.3° 2.4 40 2.4mm/h 1027.1 1028.1 1029.4 65% 83.5% 94% 490 15 105
20/02/20 3.1° 8.1° 13.9° 0.6° 7.6° 16.1° 4.7km/h dir SE 27.4km/h dir SSE 3.1° 0 40 1021.1 1024.4 1027.3 56% 80.9% 95% 547 38 488
21/02/20 0.8° 7.1° 10.6° -1.7° 6.3° 13.3° 5.3km/h dir ONO 25.7km/h dir O 0.9° 0 40 1027.1 1030.4 1032.2 55% 76.9% 89% 563 37 344
22/02/20 -1.6° 5.9° 16.1° -3.3° 18.9° 2.7km/h dir SE 14.5km/h dir SSE -3.2° 0 40 1030.7 1032 1033.5 39% 72.9% 94% 559 39 780
23/02/20 1.3° 9.6° 20.2° -0.6° 8.5° 22.2° 3.1km/h dir SE 17.7km/h dir SSE 0 40 1028.2 1030.3 1033.1 26% 64.8% 86% 619 37 522
24/02/20 6.4° 12.4° 19.5° 3.9° 11.3° 21.7° 3.4km/h dir SE 19.3km/h dir SE 6.4° 0 40 1015.6 1022.9 1029.7 56% 77.2% 94% 563 41 020
25/02/20 7.3° 10.9° 1.7° 6.3° 12.2° 6km/h dir SSE 35.4km/h dir SO 3.1° 7.4 47.4 22mm/h 1007.6 1011.4 1015.6 72% 89.4% 94% 555 9 324
26/02/20 2.3° 5.4° 8.6° 0.6° 5.1° 10° 9.8km/h dir SO 37km/h dir O 0.3° 2.2 49.6 7.6mm/h 1006.9 1011 1016.6 61% 78.9% 94% 724 23 333
27/02/20 1.9° 5.1° 9.4° 4.2° 8.9° 12.2km/h dir SSE 64.4km/h dir SE -1° 3.4 53 11mm/h 1002.2 1010.4 1019 68% 83.5% 94% 369 11 813
28/02/20 -2.3° 5.8° 12° -3.9° 5.4° 14.4° 4.5km/h dir SE 24.1km/h dir SSE -3° 0 53 1014.4 1019.5 1023.1 40% 69.7% 95% 694 42 054
29/02/20 8.2° 11.2° 13.8° 7.2° 10.5° 14.4° 16.9km/h dir SSE 80.5km/h dir SSE 7.2° 4.8 57.8 7mm/h 1001.2 1005.7 1014.3 46% 71.1% 91% 359 10 641

RETOUR ACCUEIL


Date de création : 01/03/2020 : 09:47
Catégorie : ANNEE 2020 - MOIS PASSES - FEVRIER 2020
Page lue 147 fois


Réactions à cet article


Personne n'a encore laissé de commentaire.
Soyez donc le premier !